sensor_id;sensor_type;location;lat;lon;timestamp;temperature;humidity
63277;DHT22;49403;51.046;13.780;2023-07-13T00:00:29;25.90;46.50
63277;DHT22;49403;51.046;13.780;2023-07-13T00:01:00;25.80;47.10
63277;DHT22;49403;51.046;13.780;2023-07-13T00:01:31;25.80;47.20
63277;DHT22;49403;51.046;13.780;2023-07-13T00:02:02;25.90;47.20
63277;DHT22;49403;51.046;13.780;2023-07-13T00:02:33;25.80;46.90
63277;DHT22;49403;51.046;13.780;2023-07-13T00:03:04;25.70;46.70
63277;DHT22;49403;51.046;13.780;2023-07-13T00:03:35;25.80;46.60
63277;DHT22;49403;51.046;13.780;2023-07-13T00:04:06;26.40;47.00
63277;DHT22;49403;51.046;13.780;2023-07-13T00:04:37;25.80;46.80
63277;DHT22;49403;51.046;13.780;2023-07-13T00:05:08;25.80;47.70
63277;DHT22;49403;51.046;13.780;2023-07-13T00:05:39;25.80;46.90
63277;DHT22;49403;51.046;13.780;2023-07-13T00:06:11;25.80;46.80
63277;DHT22;49403;51.046;13.780;2023-07-13T00:06:43;25.80;46.80
63277;DHT22;49403;51.046;13.780;2023-07-13T00:07:15;25.80;47.00
63277;DHT22;49403;51.046;13.780;2023-07-13T00:07:46;25.80;46.90
63277;DHT22;49403;51.046;13.780;2023-07-13T00:08:17;25.80;46.90
63277;DHT22;49403;51.046;13.780;2023-07-13T00:08:47;25.80;47.00
63277;DHT22;49403;51.046;13.780;2023-07-13T00:09:20;25.90;47.20
63277;DHT22;49403;51.046;13.780;2023-07-13T00:09:51;25.90;47.20
63277;DHT22;49403;51.046;13.780;2023-07-13T00:10:22;25.40;47.00
63277;DHT22;49403;51.046;13.780;2023-07-13T00:10:53;25.90;47.40
63277;DHT22;49403;51.046;13.780;2023-07-13T00:11:27;25.90;47.40
63277;DHT22;49403;51.046;13.780;2023-07-13T00:11:58;25.90;47.40
63277;DHT22;49403;51.046;13.780;2023-07-13T00:12:32;25.80;47.30
63277;DHT22;49403;51.046;13.780;2023-07-13T00:13:04;26.00;47.50
63277;DHT22;49403;51.046;13.780;2023-07-13T00:13:35;26.00;47.60
63277;DHT22;49403;51.046;13.780;2023-07-13T00:14:08;25.90;47.60
63277;DHT22;49403;51.046;13.780;2023-07-13T00:14:39;25.60;47.50
63277;DHT22;49403;51.046;13.780;2023-07-13T00:15:12;25.90;47.70
63277;DHT22;49403;51.046;13.780;2023-07-13T00:15:43;25.90;47.60
63277;DHT22;49403;51.046;13.780;2023-07-13T00:16:14;25.80;47.60
63277;DHT22;49403;51.046;13.780;2023-07-13T00:16:45;25.90;47.60
63277;DHT22;49403;51.046;13.780;2023-07-13T00:17:16;25.90;47.60
63277;DHT22;49403;51.046;13.780;2023-07-13T00:17:47;25.90;47.60
63277;DHT22;49403;51.046;13.780;2023-07-13T00:18:18;25.90;47.70
63277;DHT22;49403;51.046;13.780;2023-07-13T00:18:49;25.80;47.70
63277;DHT22;49403;51.046;13.780;2023-07-13T00:19:23;25.90;47.80
63277;DHT22;49403;51.046;13.780;2023-07-13T00:19:54;26.00;47.80
63277;DHT22;49403;51.046;13.780;2023-07-13T00:20:26;25.80;47.80
63277;DHT22;49403;51.046;13.780;2023-07-13T00:20:57;25.80;47.80
63277;DHT22;49403;51.046;13.780;2023-07-13T00:21:35;25.70;47.90
63277;DHT22;49403;51.046;13.780;2023-07-13T00:22:06;25.80;47.90
63277;DHT22;49403;51.046;13.780;2023-07-13T00:22:37;25.80;48.10
63277;DHT22;49403;51.046;13.780;2023-07-13T00:23:08;25.80;48.10
63277;DHT22;49403;51.046;13.780;2023-07-13T00:23:39;25.80;48.20
63277;DHT22;49403;51.046;13.780;2023-07-13T00:24:11;25.80;48.20
63277;DHT22;49403;51.046;13.780;2023-07-13T00:24:46;24.90;47.50
63277;DHT22;49403;51.046;13.780;2023-07-13T00:25:17;25.80;48.00
63277;DHT22;49403;51.046;13.780;2023-07-13T00:25:47;25.70;47.90
63277;DHT22;49403;51.046;13.780;2023-07-13T00:26:21;25.80;48.10
63277;DHT22;49403;51.046;13.780;2023-07-13T00:26:51;26.50;48.40
63277;DHT22;49403;51.046;13.780;2023-07-13T00:27:23;25.80;47.90
63277;DHT22;49403;51.046;13.780;2023-07-13T00:27:54;25.80;47.80
63277;DHT22;49403;51.046;13.780;2023-07-13T00:28:25;25.80;48.00
63277;DHT22;49403;51.046;13.780;2023-07-13T00:28:56;25.70;48.50
63277;DHT22;49403;51.046;13.780;2023-07-13T00:29:27;25.80;48.60
63277;DHT22;49403;51.046;13.780;2023-07-13T00:30:01;25.80;48.40
63277;DHT22;49403;51.046;13.780;2023-07-13T00:30:33;26.60;48.40
63277;DHT22;49403;51.046;13.780;2023-07-13T00:31:04;25.70;47.60
63277;DHT22;49403;51.046;13.780;2023-07-13T00:31:35;25.70;47.20
63277;DHT22;49403;51.046;13.780;2023-07-13T00:32:06;25.70;47.20
63277;DHT22;49403;51.046;13.780;2023-07-13T00:32:37;25.70;47.30
63277;DHT22;49403;51.046;13.780;2023-07-13T00:33:08;25.70;47.60
63277;DHT22;49403;51.046;13.780;2023-07-13T00:33:39;25.60;47.80
63277;DHT22;49403;51.046;13.780;2023-07-13T00:34:10;25.60;47.90
63277;DHT22;49403;51.046;13.780;2023-07-13T00:34:41;25.70;48.10
63277;DHT22;49403;51.046;13.780;2023-07-13T00:35:13;25.50;48.10
63277;DHT22;49403;51.046;13.780;2023-07-13T00:35:44;25.50;48.10
63277;DHT22;49403;51.046;13.780;2023-07-13T00:36:15;25.40;48.40
63277;DHT22;49403;51.046;13.780;2023-07-13T00:36:46;25.40;48.60
63277;DHT22;49403;51.046;13.780;2023-07-13T00:37:17;25.40;49.00
63277;DHT22;49403;51.046;13.780;2023-07-13T00:37:48;25.40;49.40
63277;DHT22;49403;51.046;13.780;2023-07-13T00:38:19;25.40;49.60
63277;DHT22;49403;51.046;13.780;2023-07-13T00:38:50;26.60;50.80
63277;DHT22;49403;51.046;13.780;2023-07-13T00:39:21;25.30;50.00
63277;DHT22;49403;51.046;13.780;2023-07-13T00:39:52;25.20;50.30
63277;DHT22;49403;51.046;13.780;2023-07-13T00:40:26;26.00;50.90
63277;DHT22;49403;51.046;13.780;2023-07-13T00:40:57;25.10;50.20
63277;DHT22;49403;51.046;13.780;2023-07-13T00:41:27;25.00;50.40
63277;DHT22;49403;51.046;13.780;2023-07-13T00:41:59;25.10;51.00
63277;DHT22;49403;51.046;13.780;2023-07-13T00:42:30;25.00;51.40
63277;DHT22;49403;51.046;13.780;2023-07-13T00:43:02;24.90;51.30
63277;DHT22;49403;51.046;13.780;2023-07-13T00:43:33;24.90;51.70
63277;DHT22;49403;51.046;13.780;2023-07-13T00:44:04;25.30;52.20
63277;DHT22;49403;51.046;13.780;2023-07-13T00:44:35;24.80;51.80
63277;DHT22;49403;51.046;13.780;2023-07-13T00:46:23;23.40;51.90
63277;DHT22;49403;51.046;13.780;2023-07-13T00:46:54;24.60;53.30
63277;DHT22;49403;51.046;13.780;2023-07-13T00:47:26;24.40;53.20
63277;DHT22;49403;51.046;13.780;2023-07-13T00:47:57;25.20;54.40
63277;DHT22;49403;51.046;13.780;2023-07-13T00:48:29;24.40;53.90
63277;DHT22;49403;51.046;13.780;2023-07-13T00:49:01;24.40;53.90
63277;DHT22;49403;51.046;13.780;2023-07-13T00:49:33;24.40;54.20
63277;DHT22;49403;51.046;13.780;2023-07-13T00:50:06;23.90;54.20
63277;DHT22;49403;51.046;13.780;2023-07-13T00:50:38;24.20;54.90
63277;DHT22;49403;51.046;13.780;2023-07-13T00:51:09;24.90;55.40
63277;DHT22;49403;51.046;13.780;2023-07-13T00:51:43;24.20;55.70
63277;DHT22;49403;51.046;13.780;2023-07-13T00:52:15;24.20;56.20
63277;DHT22;49403;51.046;13.780;2023-07-13T00:52:47;24.20;55.90
63277;DHT22;49403;51.046;13.780;2023-07-13T00:53:18;24.10;55.60
63277;DHT22;49403;51.046;13.780;2023-07-13T00:53:50;24.10;55.60
63277;DHT22;49403;51.046;13.780;2023-07-13T00:54:23;23.80;56.10
63277;DHT22;49403;51.046;13.780;2023-07-13T00:54:55;24.10;56.50
63277;DHT22;49403;51.046;13.780;2023-07-13T00:55:26;24.00;56.70
63277;DHT22;49403;51.046;13.780;2023-07-13T00:55:57;23.40;56.10
63277;DHT22;49403;51.046;13.780;2023-07-13T00:56:28;22.50;55.70
63277;DHT22;49403;51.046;13.780;2023-07-13T00:57:00;23.80;57.10
63277;DHT22;49403;51.046;13.780;2023-07-13T00:57:32;23.80;57.50
63277;DHT22;49403;51.046;13.780;2023-07-13T00:58:03;23.80;57.80
63277;DHT22;49403;51.046;13.780;2023-07-13T00:58:36;23.80;58.00
63277;DHT22;49403;51.046;13.780;2023-07-13T00:59:08;23.80;58.10
63277;DHT22;49403;51.046;13.780;2023-07-13T00:59:40;23.70;57.80
63277;DHT22;49403;51.046;13.780;2023-07-13T01:00:12;23.50;58.00
63277;DHT22;49403;51.046;13.780;2023-07-13T01:00:43;23.60;58.60
63277;DHT22;49403;51.046;13.780;2023-07-13T01:01:14;23.60;59.20
63277;DHT22;49403;51.046;13.780;2023-07-13T01:01:45;22.70;58.70
63277;DHT22;49403;51.046;13.780;2023-07-13T01:02:16;23.40;59.70
63277;DHT22;49403;51.046;13.780;2023-07-13T01:02:47;23.50;59.90
63277;DHT22;49403;51.046;13.780;2023-07-13T01:03:18;23.40;60.30
63277;DHT22;49403;51.046;13.780;2023-07-13T01:03:49;23.40;60.00
63277;DHT22;49403;51.046;13.780;2023-07-13T01:04:22;23.40;60.60
63277;DHT22;49403;51.046;13.780;2023-07-13T01:04:54;23.50;60.70
63277;DHT22;49403;51.046;13.780;2023-07-13T01:05:25;23.40;61.00
63277;DHT22;49403;51.046;13.780;2023-07-13T01:05:56;23.30;60.20
63277;DHT22;49403;51.046;13.780;2023-07-13T01:06:27;23.30;59.90
63277;DHT22;49403;51.046;13.780;2023-07-13T01:06:58;23.20;60.40
63277;DHT22;49403;51.046;13.780;2023-07-13T01:07:30;23.20;61.10
63277;DHT22;49403;51.046;13.780;2023-07-13T01:08:01;23.20;61.20
63277;DHT22;49403;51.046;13.780;2023-07-13T01:08:34;23.70;61.70
63277;DHT22;49403;51.046;13.780;2023-07-13T01:09:05;23.10;61.60
63277;DHT22;49403;51.046;13.780;2023-07-13T01:09:37;23.20;62.60
63277;DHT22;49403;51.046;13.780;2023-07-13T01:10:08;23.20;62.40
63277;DHT22;49403;51.046;13.780;2023-07-13T01:10:39;23.20;63.30
63277;DHT22;49403;51.046;13.780;2023-07-13T01:11:10;23.20;63.00
63277;DHT22;49403;51.046;13.780;2023-07-13T01:11:41;23.10;63.40
63277;DHT22;49403;51.046;13.780;2023-07-13T01:12:12;23.30;64.00
63277;DHT22;49403;51.046;13.780;2023-07-13T01:12:44;23.30;64.40
63277;DHT22;49403;51.046;13.780;2023-07-13T01:13:18;23.30;64.60
63277;DHT22;49403;51.046;13.780;2023-07-13T01:13:49;23.40;65.00
63277;DHT22;49403;51.046;13.780;2023-07-13T01:14:20;23.40;64.30
63277;DHT22;49403;51.046;13.780;2023-07-13T01:14:56;23.40;64.70
63277;DHT22;49403;51.046;13.780;2023-07-13T01:16:12;23.40;63.40
63277;DHT22;49403;51.046;13.780;2023-07-13T01:16:44;23.40;63.00
63277;DHT22;49403;51.046;13.780;2023-07-13T01:17:17;23.40;63.20
63277;DHT22;49403;51.046;13.780;2023-07-13T01:17:48;23.40;63.20
63277;DHT22;49403;51.046;13.780;2023-07-13T01:18:22;23.40;63.00
63277;DHT22;49403;51.046;13.780;2023-07-13T01:18:55;23.40;63.30
63277;DHT22;49403;51.046;13.780;2023-07-13T01:19:36;23.40;63.40
63277;DHT22;49403;51.046;13.780;2023-07-13T01:20:08;23.40;63.10
63277;DHT22;49403;51.046;13.780;2023-07-13T01:20:39;23.30;63.30
63277;DHT22;49403;51.046;13.780;2023-07-13T01:21:10;23.20;63.30
63277;DHT22;49403;51.046;13.780;2023-07-13T01:21:41;23.30;63.80
63277;DHT22;49403;51.046;13.780;2023-07-13T01:22:16;23.30;63.90
63277;DHT22;49403;51.046;13.780;2023-07-13T01:22:47;23.20;63.70
63277;DHT22;49403;51.046;13.780;2023-07-13T01:23:19;23.20;64.10
63277;DHT22;49403;51.046;13.780;2023-07-13T01:23:50;23.10;64.20
63277;DHT22;49403;51.046;13.780;2023-07-13T01:24:21;23.10;64.30
63277;DHT22;49403;51.046;13.780;2023-07-13T01:24:52;23.10;64.60
63277;DHT22;49403;51.046;13.780;2023-07-13T01:25:23;23.10;64.90
63277;DHT22;49403;51.046;13.780;2023-07-13T01:25:54;22.40;64.40
63277;DHT22;49403;51.046;13.780;2023-07-13T01:26:25;22.90;64.70
63277;DHT22;49403;51.046;13.780;2023-07-13T01:26:57;22.90;65.20
63277;DHT22;49403;51.046;13.780;2023-07-13T01:27:28;22.90;65.60
63277;DHT22;49403;51.046;13.780;2023-07-13T01:27:59;22.80;66.00
63277;DHT22;49403;51.046;13.780;2023-07-13T01:28:30;22.80;66.20
63277;DHT22;49403;51.046;13.780;2023-07-13T01:29:00;22.90;66.70
63277;DHT22;49403;51.046;13.780;2023-07-13T01:29:32;22.80;66.60
63277;DHT22;49403;51.046;13.780;2023-07-13T01:30:03;22.80;66.70
63277;DHT22;49403;51.046;13.780;2023-07-13T01:30:38;22.80;67.10
63277;DHT22;49403;51.046;13.780;2023-07-13T01:31:10;22.90;67.10
63277;DHT22;49403;51.046;13.780;2023-07-13T01:31:42;22.80;66.90
63277;DHT22;49403;51.046;13.780;2023-07-13T01:32:16;22.90;67.10
63277;DHT22;49403;51.046;13.780;2023-07-13T01:32:47;22.80;67.00
63277;DHT22;49403;51.046;13.780;2023-07-13T01:33:18;22.80;67.00
63277;DHT22;49403;51.046;13.780;2023-07-13T01:33:49;22.70;67.10
63277;DHT22;49403;51.046;13.780;2023-07-13T01:34:19;22.70;67.40
63277;DHT22;49403;51.046;13.780;2023-07-13T01:34:51;22.70;67.60
63277;DHT22;49403;51.046;13.780;2023-07-13T01:35:24;22.70;67.40
63277;DHT22;49403;51.046;13.780;2023-07-13T01:35:57;22.70;67.60
63277;DHT22;49403;51.046;13.780;2023-07-13T01:36:28;22.70;67.90
63277;DHT22;49403;51.046;13.780;2023-07-13T01:36:59;22.70;68.20
63277;DHT22;49403;51.046;13.780;2023-07-13T01:37:30;22.70;68.40
63277;DHT22;49403;51.046;13.780;2023-07-13T01:38:06;22.70;68.30
63277;DHT22;49403;51.046;13.780;2023-07-13T01:38:38;22.50;68.50
63277;DHT22;49403;51.046;13.780;2023-07-13T01:39:09;22.60;68.80
63277;DHT22;49403;51.046;13.780;2023-07-13T01:39:40;22.60;69.00
63277;DHT22;49403;51.046;13.780;2023-07-13T01:40:11;22.50;69.00
63277;DHT22;49403;51.046;13.780;2023-07-13T01:40:43;22.60;69.50
63277;DHT22;49403;51.046;13.780;2023-07-13T01:41:14;22.50;69.60
63277;DHT22;49403;51.046;13.780;2023-07-13T01:41:45;22.60;70.00
63277;DHT22;49403;51.046;13.780;2023-07-13T01:42:16;22.50;70.20
63277;DHT22;49403;51.046;13.780;2023-07-13T01:42:50;22.50;70.50
63277;DHT22;49403;51.046;13.780;2023-07-13T01:43:21;22.40;70.60
63277;DHT22;49403;51.046;13.780;2023-07-13T01:43:52;22.40;70.80
63277;DHT22;49403;51.046;13.780;2023-07-13T01:44:23;22.40;71.00
63277;DHT22;49403;51.046;13.780;2023-07-13T01:44:54;22.40;71.10
63277;DHT22;49403;51.046;13.780;2023-07-13T01:45:25;22.40;71.40
63277;DHT22;49403;51.046;13.780;2023-07-13T01:45:56;22.40;71.70
63277;DHT22;49403;51.046;13.780;2023-07-13T01:46:27;22.50;71.70
63277;DHT22;49403;51.046;13.780;2023-07-13T01:46:58;22.50;71.60
63277;DHT22;49403;51.046;13.780;2023-07-13T01:47:29;22.50;71.60
63277;DHT22;49403;51.046;13.780;2023-07-13T01:48:01;22.50;72.40
63277;DHT22;49403;51.046;13.780;2023-07-13T01:48:32;22.50;71.60
63277;DHT22;49403;51.046;13.780;2023-07-13T01:49:03;22.60;71.80
63277;DHT22;49403;51.046;13.780;2023-07-13T01:49:34;22.60;72.70
63277;DHT22;49403;51.046;13.780;2023-07-13T01:50:05;23.90;74.10
63277;DHT22;49403;51.046;13.780;2023-07-13T01:50:36;22.70;72.90
63277;DHT22;49403;51.046;13.780;2023-07-13T01:51:07;22.30;72.00
63277;DHT22;49403;51.046;13.780;2023-07-13T01:51:38;22.70;72.10
63277;DHT22;49403;51.046;13.780;2023-07-13T01:52:09;22.70;71.60
63277;DHT22;49403;51.046;13.780;2023-07-13T01:52:40;22.50;71.20
63277;DHT22;49403;51.046;13.780;2023-07-13T01:53:11;22.70;71.30
63277;DHT22;49403;51.046;13.780;2023-07-13T01:53:42;22.70;71.30
63277;DHT22;49403;51.046;13.780;2023-07-13T01:54:14;22.70;71.40
63277;DHT22;49403;51.046;13.780;2023-07-13T01:54:45;22.80;71.90
63277;DHT22;49403;51.046;13.780;2023-07-13T01:55:15;22.80;72.20
63277;DHT22;49403;51.046;13.780;2023-07-13T01:55:47;22.60;71.30
63277;DHT22;49403;51.046;13.780;2023-07-13T01:56:18;22.60;71.50
63277;DHT22;49403;51.046;13.780;2023-07-13T01:56:49;22.70;71.40
63277;DHT22;49403;51.046;13.780;2023-07-13T01:57:20;22.70;71.60
63277;DHT22;49403;51.046;13.780;2023-07-13T01:57:51;22.60;71.80
63277;DHT22;49403;51.046;13.780;2023-07-13T01:58:22;22.60;72.50
63277;DHT22;49403;51.046;13.780;2023-07-13T01:58:52;22.70;72.60
63277;DHT22;49403;51.046;13.780;2023-07-13T01:59:23;22.70;73.00
63277;DHT22;49403;51.046;13.780;2023-07-13T01:59:54;22.50;73.50
63277;DHT22;49403;51.046;13.780;2023-07-13T02:00:25;22.70;74.50
63277;DHT22;49403;51.046;13.780;2023-07-13T02:00:56;22.70;74.50
63277;DHT22;49403;51.046;13.780;2023-07-13T02:01:27;22.70;75.20
63277;DHT22;49403;51.046;13.780;2023-07-13T02:01:58;22.80;75.60
63277;DHT22;49403;51.046;13.780;2023-07-13T02:02:29;22.80;74.70
63277;DHT22;49403;51.046;13.780;2023-07-13T02:03:00;22.80;74.50
63277;DHT22;49403;51.046;13.780;2023-07-13T02:03:31;22.80;75.00
63277;DHT22;49403;51.046;13.780;2023-07-13T02:04:02;23.10;74.80
63277;DHT22;49403;51.046;13.780;2023-07-13T02:04:33;22.80;74.20
63277;DHT22;49403;51.046;13.780;2023-07-13T02:05:04;22.90;74.20
63277;DHT22;49403;51.046;13.780;2023-07-13T02:05:36;22.80;74.00
63277;DHT22;49403;51.046;13.780;2023-07-13T02:06:06;22.90;73.80
63277;DHT22;49403;51.046;13.780;2023-07-13T02:06:37;22.90;74.00
63277;DHT22;49403;51.046;13.780;2023-07-13T02:07:08;23.50;74.10
63277;DHT22;49403;51.046;13.780;2023-07-13T02:07:39;24.10;74.30
63277;DHT22;49403;51.046;13.780;2023-07-13T02:08:10;24.40;74.90
63277;DHT22;49403;51.046;13.780;2023-07-13T02:08:41;22.90;73.60
63277;DHT22;49403;51.046;13.780;2023-07-13T02:09:13;23.10;73.20
63277;DHT22;49403;51.046;13.780;2023-07-13T02:09:44;23.80;73.60
63277;DHT22;49403;51.046;13.780;2023-07-13T02:10:15;23.00;72.80
63277;DHT22;49403;51.046;13.780;2023-07-13T02:10:45;23.00;72.70
63277;DHT22;49403;51.046;13.780;2023-07-13T02:11:16;23.00;72.40
63277;DHT22;49403;51.046;13.780;2023-07-13T02:11:47;22.90;72.10
63277;DHT22;49403;51.046;13.780;2023-07-13T02:12:18;23.10;71.70
63277;DHT22;49403;51.046;13.780;2023-07-13T02:12:50;23.00;71.40
63277;DHT22;49403;51.046;13.780;2023-07-13T02:13:21;23.10;71.30
63277;DHT22;49403;51.046;13.780;2023-07-13T02:13:52;23.10;71.60
63277;DHT22;49403;51.046;13.780;2023-07-13T02:14:23;23.10;71.60
63277;DHT22;49403;51.046;13.780;2023-07-13T02:14:54;23.10;71.80
63277;DHT22;49403;51.046;13.780;2023-07-13T02:15:25;23.10;71.80
63277;DHT22;49403;51.046;13.780;2023-07-13T02:15:55;23.10;72.00
63277;DHT22;49403;51.046;13.780;2023-07-13T02:16:27;23.10;72.20
63277;DHT22;49403;51.046;13.780;2023-07-13T02:16:57;23.10;71.40
63277;DHT22;49403;51.046;13.780;2023-07-13T02:17:28;23.10;71.10
63277;DHT22;49403;51.046;13.780;2023-07-13T02:17:59;23.10;71.00
63277;DHT22;49403;51.046;13.780;2023-07-13T02:18:30;23.00;71.90
63277;DHT22;49403;51.046;13.780;2023-07-13T02:19:01;21.80;69.80
63277;DHT22;49403;51.046;13.780;2023-07-13T02:19:32;23.00;71.40
63277;DHT22;49403;51.046;13.780;2023-07-13T02:20:04;23.00;71.60
63277;DHT22;49403;51.046;13.780;2023-07-13T02:20:35;23.00;71.90
63277;DHT22;49403;51.046;13.780;2023-07-13T02:21:06;22.80;71.90
63277;DHT22;49403;51.046;13.780;2023-07-13T02:21:37;23.00;72.40
63277;DHT22;49403;51.046;13.780;2023-07-13T02:22:08;23.60;73.30
63277;DHT22;49403;51.046;13.780;2023-07-13T02:22:39;22.90;72.60
63277;DHT22;49403;51.046;13.780;2023-07-13T02:23:10;22.90;73.00
63277;DHT22;49403;51.046;13.780;2023-07-13T02:23:41;23.00;73.20
63277;DHT22;49403;51.046;13.780;2023-07-13T02:24:12;22.70;73.20
63277;DHT22;49403;51.046;13.780;2023-07-13T02:24:48;23.50;74.00
63277;DHT22;49403;51.046;13.780;2023-07-13T02:25:18;22.90;73.20
63277;DHT22;49403;51.046;13.780;2023-07-13T02:25:54;22.90;73.20
63277;DHT22;49403;51.046;13.780;2023-07-13T02:26:26;22.90;73.70
63277;DHT22;49403;51.046;13.780;2023-07-13T02:26:57;22.90;73.60
63277;DHT22;49403;51.046;13.780;2023-07-13T02:27:28;22.90;73.80
63277;DHT22;49403;51.046;13.780;2023-07-13T02:27:59;22.70;73.80
63277;DHT22;49403;51.046;13.780;2023-07-13T02:28:29;22.90;74.50
63277;DHT22;49403;51.046;13.780;2023-07-13T02:29:00;22.90;74.90
63277;DHT22;49403;51.046;13.780;2023-07-13T02:29:31;22.90;75.10
63277;DHT22;49403;51.046;13.780;2023-07-13T02:30:02;24.20;76.60
63277;DHT22;49403;51.046;13.780;2023-07-13T02:30:33;22.90;75.30
63277;DHT22;49403;51.046;13.780;2023-07-13T02:31:08;24.20;76.70
63277;DHT22;49403;51.046;13.780;2023-07-13T02:31:40;22.90;75.80
63277;DHT22;49403;51.046;13.780;2023-07-13T02:32:10;23.10;76.80
63277;DHT22;49403;51.046;13.780;2023-07-13T02:32:41;23.00;76.30
63277;DHT22;49403;51.046;13.780;2023-07-13T02:33:14;23.00;76.40
63277;DHT22;49403;51.046;13.780;2023-07-13T02:33:45;23.00;76.60
63277;DHT22;49403;51.046;13.780;2023-07-13T02:34:16;23.00;76.40
63277;DHT22;49403;51.046;13.780;2023-07-13T02:34:47;23.00;76.20
63277;DHT22;49403;51.046;13.780;2023-07-13T02:35:18;23.00;76.20
63277;DHT22;49403;51.046;13.780;2023-07-13T02:35:48;23.00;76.40
63277;DHT22;49403;51.046;13.780;2023-07-13T02:36:19;23.00;76.30
63277;DHT22;49403;51.046;13.780;2023-07-13T02:36:50;23.00;76.50
63277;DHT22;49403;51.046;13.780;2023-07-13T02:37:21;23.50;77.20
63277;DHT22;49403;51.046;13.780;2023-07-13T02:37:52;23.00;76.80
63277;DHT22;49403;51.046;13.780;2023-07-13T02:38:23;23.00;77.00
63277;DHT22;49403;51.046;13.780;2023-07-13T02:38:54;23.00;76.50
63277;DHT22;49403;51.046;13.780;2023-07-13T02:39:25;23.00;76.60
63277;DHT22;49403;51.046;13.780;2023-07-13T02:39:56;23.00;76.70
63277;DHT22;49403;51.046;13.780;2023-07-13T02:40:27;23.00;76.80
63277;DHT22;49403;51.046;13.780;2023-07-13T02:40:58;23.00;77.10
63277;DHT22;49403;51.046;13.780;2023-07-13T02:41:28;23.00;77.10
63277;DHT22;49403;51.046;13.780;2023-07-13T02:41:59;23.00;77.50
63277;DHT22;49403;51.046;13.780;2023-07-13T02:42:30;23.00;77.60
63277;DHT22;49403;51.046;13.780;2023-07-13T02:43:02;22.90;77.60
63277;DHT22;49403;51.046;13.780;2023-07-13T02:43:33;23.00;77.90
63277;DHT22;49403;51.046;13.780;2023-07-13T02:44:04;22.00;76.80
63277;DHT22;49403;51.046;13.780;2023-07-13T02:44:35;23.00;78.10
63277;DHT22;49403;51.046;13.780;2023-07-13T02:45:07;23.00;78.40
63277;DHT22;49403;51.046;13.780;2023-07-13T02:45:38;22.90;78.60
63277;DHT22;49403;51.046;13.780;2023-07-13T02:46:09;23.00;79.00
63277;DHT22;49403;51.046;13.780;2023-07-13T02:46:40;23.00;78.90
63277;DHT22;49403;51.046;13.780;2023-07-13T02:47:11;22.90;78.90
63277;DHT22;49403;51.046;13.780;2023-07-13T02:47:43;23.40;79.00
63277;DHT22;49403;51.046;13.780;2023-07-13T02:48:14;22.90;78.50
63277;DHT22;49403;51.046;13.780;2023-07-13T02:48:45;23.00;79.10
63277;DHT22;49403;51.046;13.780;2023-07-13T02:49:16;22.90;79.00
63277;DHT22;49403;51.046;13.780;2023-07-13T02:49:47;22.90;78.70
63277;DHT22;49403;51.046;13.780;2023-07-13T02:50:18;22.90;78.70
63277;DHT22;49403;51.046;13.780;2023-07-13T02:50:49;23.00;78.90
63277;DHT22;49403;51.046;13.780;2023-07-13T02:51:20;22.90;78.70
63277;DHT22;49403;51.046;13.780;2023-07-13T02:51:51;22.80;78.30
63277;DHT22;49403;51.046;13.780;2023-07-13T02:52:22;22.90;78.30
63277;DHT22;49403;51.046;13.780;2023-07-13T02:52:53;23.00;79.60
63277;DHT22;49403;51.046;13.780;2023-07-13T02:53:24;23.00;78.70
63277;DHT22;49403;51.046;13.780;2023-07-13T02:53:55;22.90;78.70
63277;DHT22;49403;51.046;13.780;2023-07-13T02:54:25;23.00;78.70
63277;DHT22;49403;51.046;13.780;2023-07-13T02:54:56;23.00;78.60
63277;DHT22;49403;51.046;13.780;2023-07-13T02:55:27;22.90;78.40
63277;DHT22;49403;51.046;13.780;2023-07-13T02:55:58;23.00;78.20
63277;DHT22;49403;51.046;13.780;2023-07-13T02:56:30;24.10;78.90
63277;DHT22;49403;51.046;13.780;2023-07-13T02:57:01;23.00;77.60
63277;DHT22;49403;51.046;13.780;2023-07-13T02:57:32;23.00;77.50
63277;DHT22;49403;51.046;13.780;2023-07-13T02:58:04;22.50;76.90
63277;DHT22;49403;51.046;13.780;2023-07-13T02:58:36;23.00;77.70
63277;DHT22;49403;51.046;13.780;2023-07-13T02:59:09;23.00;78.00
63277;DHT22;49403;51.046;13.780;2023-07-13T02:59:40;23.00;78.20
63277;DHT22;49403;51.046;13.780;2023-07-13T03:00:11;23.00;78.50
63277;DHT22;49403;51.046;13.780;2023-07-13T03:00:42;23.00;78.40
63277;DHT22;49403;51.046;13.780;2023-07-13T03:01:13;23.00;78.50
63277;DHT22;49403;51.046;13.780;2023-07-13T03:01:49;23.00;78.40
63277;DHT22;49403;51.046;13.780;2023-07-13T03:02:20;23.00;78.40
63277;DHT22;49403;51.046;13.780;2023-07-13T03:02:51;23.40;78.80
63277;DHT22;49403;51.046;13.780;2023-07-13T03:03:23;23.00;78.70
63277;DHT22;49403;51.046;13.780;2023-07-13T03:03:54;22.90;78.60
63277;DHT22;49403;51.046;13.780;2023-07-13T03:04:26;23.00;78.60
63277;DHT22;49403;51.046;13.780;2023-07-13T03:04:56;23.90;79.20
63277;DHT22;49403;51.046;13.780;2023-07-13T03:05:27;23.00;78.20
63277;DHT22;49403;51.046;13.780;2023-07-13T03:05:59;23.00;78.10
63277;DHT22;49403;51.046;13.780;2023-07-13T03:06:31;23.00;78.00
63277;DHT22;49403;51.046;13.780;2023-07-13T03:07:02;22.90;78.10
63277;DHT22;49403;51.046;13.780;2023-07-13T03:07:33;22.80;78.20
63277;DHT22;49403;51.046;13.780;2023-07-13T03:08:03;23.00;78.60
63277;DHT22;49403;51.046;13.780;2023-07-13T03:08:34;24.10;80.00
63277;DHT22;49403;51.046;13.780;2023-07-13T03:09:05;22.90;79.00
63277;DHT22;49403;51.046;13.780;2023-07-13T03:09:36;22.90;78.30
63277;DHT22;49403;51.046;13.780;2023-07-13T03:10:07;22.90;78.60
63277;DHT22;49403;51.046;13.780;2023-07-13T03:10:38;22.90;78.60
63277;DHT22;49403;51.046;13.780;2023-07-13T03:11:12;22.80;78.70
63277;DHT22;49403;51.046;13.780;2023-07-13T03:11:43;22.80;79.50
63277;DHT22;49403;51.046;13.780;2023-07-13T03:12:14;23.40;80.40
63277;DHT22;49403;51.046;13.780;2023-07-13T03:12:45;22.80;79.80
63277;DHT22;49403;51.046;13.780;2023-07-13T03:13:16;22.80;80.00
63277;DHT22;49403;51.046;13.780;2023-07-13T03:13:47;21.80;79.40
63277;DHT22;49403;51.046;13.780;2023-07-13T03:14:18;22.80;80.10
63277;DHT22;49403;51.046;13.780;2023-07-13T03:14:49;22.20;79.40
63277;DHT22;49403;51.046;13.780;2023-07-13T03:15:20;23.60;80.80
63277;DHT22;49403;51.046;13.780;2023-07-13T03:15:51;22.50;79.80
63277;DHT22;49403;51.046;13.780;2023-07-13T03:16:22;22.80;80.50
63277;DHT22;49403;51.046;13.780;2023-07-13T03:16:52;22.70;80.40
63277;DHT22;49403;51.046;13.780;2023-07-13T03:17:23;22.80;80.60